Time;durP1;ratioP1;P1;durP2;ratioP2;P2;SDS_P1;SDS_P2;PMS_P1;PMS_P2;Temp;Humidity;BMP_temperature;BMP_pressure;BME280_temperature;BME280_humidity;BME280_pressure;Samples;Min_cycle;Max_cycle;Signal;HPM_P1;HPM_P2
2023/07/01 00:00:00;;;;;;;5.05;4.20;;;17.50;99.90;;;;;;4977329;28;20185;-37
2023/07/01 00:02:26;;;;;;;6.82;3.42;;;17.50;99.90;;;;;;4977552;28;20274;-39
2023/07/01 00:04:52;;;;;;;6.07;3.47;;;17.50;99.90;;;;;;4986076;28;20187;-41
2023/07/01 00:07:19;;;;;;;4.45;3.38;;;17.40;99.90;;;;;;4985405;28;20325;-39
2023/07/01 00:09:45;;;;;;;4.38;3.38;;;17.40;99.90;;;;;;4973299;28;20245;-36
2023/07/01 00:12:11;;;;;;;4.90;3.80;;;17.40;99.90;;;;;;4978974;28;20195;-36
2023/07/01 00:14:37;;;;;;;4.07;3.40;;;17.40;99.90;;;;;;4980100;28;20177;-38
2023/07/01 00:17:03;;;;;;;4.13;3.40;;;17.40;99.90;;;;;;4974889;28;20266;-38
2023/07/01 00:19:28;;;;;;;4.10;3.70;;;17.30;99.90;;;;;;4976930;28;20199;-39
2023/07/01 00:21:54;;;;;;;4.22;3.38;;;17.30;99.90;;;;;;4988983;28;20187;-41
2023/07/01 00:24:20;;;;;;;5.07;3.90;;;17.30;99.90;;;;;;4976528;28;20192;-35
2023/07/01 00:26:46;;;;;;;5.15;3.70;;;17.20;99.90;;;;;;4976426;28;20215;-37
2023/07/01 00:29:12;;;;;;;5.53;3.92;;;17.10;99.90;;;;;;4976833;28;20177;-38
2023/07/01 00:31:38;;;;;;;3.92;3.53;;;17.10;99.90;;;;;;4977552;28;20183;-34
2023/07/01 00:34:04;;;;;;;4.38;3.42;;;17.10;99.90;;;;;;4991516;28;20191;-39
2023/07/01 00:36:29;;;;;;;5.50;3.60;;;17.10;99.90;;;;;;4976616;28;20203;-39
2023/07/01 00:38:57;;;;;;;5.07;3.67;;;17.00;99.90;;;;;;4985086;28;20275;-39
2023/07/01 00:41:22;;;;;;;3.87;3.50;;;17.10;99.90;;;;;;4977303;28;20277;-39
2023/07/01 00:43:48;;;;;;;4.75;4.22;;;17.10;99.90;;;;;;4976979;28;20180;-38
2023/07/01 00:46:16;;;;;;;6.93;3.90;;;17.00;99.90;;;;;;4974048;28;20219;-35
2023/07/01 00:48:42;;;;;;;7.23;4.00;;;16.90;99.90;;;;;;4957320;28;20201;-39
2023/07/01 00:51:08;;;;;;;4.13;3.72;;;16.80;99.90;;;;;;5006192;28;20276;-38
2023/07/01 00:53:34;;;;;;;4.83;4.00;;;16.80;99.90;;;;;;4976692;28;20203;-38
2023/07/01 00:56:00;;;;;;;5.13;3.97;;;16.70;99.90;;;;;;4976528;28;20190;-40
2023/07/01 00:58:26;;;;;;;4.33;3.90;;;16.70;99.90;;;;;;4989255;28;20234;-37
2023/07/01 01:00:55;;;;;;;6.80;3.90;;;16.70;99.90;;;;;;5005181;28;20191;-39
2023/07/01 01:03:37;;;;;;;6.50;3.90;;;16.60;99.90;;;;;;4985233;28;20188;-41
2023/07/01 01:06:33;;;;;;;9.53;4.20;;;16.60;99.90;;;;;;4992145;28;20203;-39
2023/07/01 01:09:11;;;;;;;5.07;3.73;;;16.60;99.90;;;;;;4970317;28;20243;-39
2023/07/01 01:11:41;;;;;;;6.00;4.00;;;16.60;99.90;;;;;;4996114;28;20229;-41
2023/07/01 01:14:09;;;;;;;7.27;4.00;;;16.50;99.90;;;;;;4973472;28;20275;-39
2023/07/01 01:16:35;;;;;;;4.90;3.93;;;16.50;99.90;;;;;;4969090;28;20263;-37
2023/07/01 01:19:06;;;;;;;4.73;3.20;;;16.50;99.90;;;;;;5008407;28;20219;-37
2023/07/01 01:21:34;;;;;;;8.70;3.90;;;16.40;99.90;;;;;;4973014;28;20195;-40
2023/07/01 01:24:05;;;;;;;6.97;3.50;;;16.30;99.90;;;;;;4997260;28;20270;-40
2023/07/01 01:26:39;;;;;;;5.03;3.47;;;16.30;99.90;;;;;;4969815;28;20231;-36
2023/07/01 01:29:06;;;;;;;7.60;3.70;;;16.40;99.90;;;;;;4974825;28;20186;-40
2023/07/01 01:31:33;;;;;;;6.93;4.10;;;16.40;99.90;;;;;;4982556;28;20181;-37
2023/07/01 01:33:59;;;;;;;8.27;4.13;;;16.40;99.90;;;;;;4986453;28;20180;-40
2023/07/01 01:36:40;;;;;;;6.20;3.70;;;16.40;99.90;;;;;;4968516;28;20275;-36
2023/07/01 01:39:08;;;;;;;5.93;3.73;;;16.40;99.90;;;;;;4976162;28;20222;-37
2023/07/01 01:41:47;;;;;;;8.00;3.97;;;16.50;99.90;;;;;;4976118;28;20184;-40
2023/07/01 01:44:22;;;;;;;6.80;3.77;;;16.50;99.90;;;;;;4976064;28;20187;-41
2023/07/01 01:46:48;;;;;;;5.63;3.67;;;16.50;99.90;;;;;;4986706;28;20208;-34
2023/07/01 01:49:15;;;;;;;6.47;3.53;;;16.50;99.90;;;;;;5016156;28;20180;-38
2023/07/01 01:51:42;;;;;;;5.87;4.10;;;16.50;99.90;;;;;;4976290;28;20187;-35
2023/07/01 01:54:10;;;;;;;3.90;3.30;;;16.50;99.90;;;;;;4976381;28;20188;-36
2023/07/01 01:56:37;;;;;;;5.80;3.73;;;16.40;99.90;;;;;;4980012;28;20180;-41
2023/07/01 01:59:03;;;;;;;5.63;3.80;;;16.40;99.90;;;;;;4978578;28;20184;-37
2023/07/01 02:01:29;;;;;;;6.30;4.03;;;16.40;99.90;;;;;;4972742;28;20275;-41
2023/07/01 02:03:55;;;;;;;4.00;3.60;;;16.40;99.90;;;;;;4993192;28;20275;-37
2023/07/01 02:06:21;;;;;;;5.43;3.50;;;16.40;99.90;;;;;;4971956;28;20199;-39
2023/07/01 02:08:47;;;;;;;5.33;4.07;;;16.50;99.90;;;;;;4991930;28;20202;-37
2023/07/01 02:11:13;;;;;;;6.27;3.77;;;16.40;99.90;;;;;;4978758;28;20212;-36
2023/07/01 02:13:39;;;;;;;4.43;3.60;;;16.40;99.90;;;;;;4979837;28;20267;-40
2023/07/01 02:16:05;;;;;;;10.63;3.80;;;16.50;99.90;;;;;;4995468;28;20188;-41
2023/07/01 02:18:30;;;;;;;5.07;3.80;;;16.50;99.90;;;;;;4978126;28;20702;-39
2023/07/01 02:20:56;;;;;;;6.53;3.80;;;16.40;99.90;;;;;;4979217;28;20288;-39
2023/07/01 02:23:22;;;;;;;6.00;3.90;;;16.50;99.90;;;;;;4971747;28;20267;-41
2023/07/01 02:25:48;;;;;;;5.53;4.03;;;16.50;99.90;;;;;;4980287;28;20189;-39
2023/07/01 02:28:14;;;;;;;4.50;4.10;;;16.50;99.90;;;;;;5002635;28;20199;-40
2023/07/01 02:30:40;;;;;;;4.70;3.70;;;16.50;99.90;;;;;;4990103;28;20220;-38
2023/07/01 02:33:06;;;;;;;5.23;3.70;;;16.50;99.90;;;;;;4994229;28;20211;-37
2023/07/01 02:35:31;;;;;;;4.53;3.57;;;16.50;99.90;;;;;;4972667;28;20184;-41
2023/07/01 02:37:57;;;;;;;6.10;3.93;;;16.50;99.90;;;;;;4986950;28;20212;-38
2023/07/01 02:40:23;;;;;;;7.07;3.77;;;16.40;99.90;;;;;;4979121;28;20176;-36
2023/07/01 02:42:49;;;;;;;9.20;4.30;;;16.40;99.90;;;;;;4991626;28;20244;-36
2023/07/01 02:45:15;;;;;;;5.60;3.60;;;16.30;99.90;;;;;;4984802;28;20181;-40
2023/07/01 02:47:40;;;;;;;9.00;4.17;;;16.30;99.90;;;;;;4978726;28;20204;-39
2023/07/01 02:50:07;;;;;;;6.80;4.07;;;16.20;99.90;;;;;;4992334;28;20195;-38
2023/07/01 02:52:32;;;;;;;11.97;4.27;;;16.10;99.90;;;;;;4978942;28;20176;-39
2023/07/01 02:54:58;;;;;;;7.77;3.57;;;16.10;99.90;;;;;;4989543;28;20204;-36
2023/07/01 02:57:24;;;;;;;10.20;4.23;;;16.00;99.90;;;;;;4977274;28;20208;-37
2023/07/01 02:59:50;;;;;;;11.03;4.10;;;15.90;99.90;;;;;;4979783;28;20203;-40
2023/07/01 03:02:16;;;;;;;11.67;4.57;;;15.80;99.90;;;;;;4983399;28;20184;-41
2023/07/01 03:04:42;;;;;;;9.00;4.03;;;15.80;99.90;;;;;;4973128;28;20267;-40
2023/07/01 03:07:08;;;;;;;10.47;4.47;;;15.80;99.90;;;;;;5006459;28;20212;-37
2023/07/01 03:09:33;;;;;;;9.50;4.23;;;15.70;99.90;;;;;;4971563;28;20180;-39
2023/07/01 03:11:59;;;;;;;9.27;4.50;;;15.70;99.90;;;;;;4994440;28;20175;-39
2023/07/01 03:14:25;;;;;;;7.87;3.97;;;15.80;99.90;;;;;;4970802;28;20180;-37
2023/07/01 03:16:52;;;;;;;8.93;4.00;;;15.80;99.90;;;;;;4985420;28;20199;-40
2023/07/01 03:19:18;;;;;;;8.57;4.23;;;15.70;99.90;;;;;;4983964;28;20269;-37
2023/07/01 03:21:45;;;;;;;9.57;4.13;;;15.70;99.90;;;;;;4973067;28;20184;-38
2023/07/01 03:24:11;;;;;;;21.97;4.50;;;15.70;99.90;;;;;;4978029;28;20180;-40
2023/07/01 03:26:37;;;;;;;9.20;4.63;;;15.60;99.90;;;;;;4986426;28;20249;-37
2023/07/01 03:29:03;;;;;;;10.87;4.20;;;15.50;99.90;;;;;;4986151;28;20183;-39
2023/07/01 03:31:29;;;;;;;12.30;4.63;;;15.50;99.90;;;;;;4978337;28;20172;-40
2023/07/01 03:33:55;;;;;;;20.03;4.43;;;15.40;99.90;;;;;;4991642;28;20188;-40
2023/07/01 03:36:21;;;;;;;11.00;4.17;;;15.40;99.90;;;;;;4974635;28;20181;-38
2023/07/01 03:38:47;;;;;;;9.00;4.50;;;15.40;99.90;;;;;;4972626;28;20226;-42
2023/07/01 03:41:13;;;;;;;9.40;4.63;;;15.40;99.90;;;;;;4977880;28;20192;-40
2023/07/01 03:43:39;;;;;;;11.03;4.70;;;15.40;99.90;;;;;;4978071;28;20180;-40
2023/07/01 03:46:05;;;;;;;9.80;4.47;;;15.30;99.90;;;;;;4976584;28;20235;-41
2023/07/01 03:48:31;;;;;;;8.30;4.07;;;15.40;99.90;;;;;;4976885;28;20262;-39
2023/07/01 03:50:56;;;;;;;8.37;4.90;;;15.50;99.90;;;;;;4978391;28;20199;-40
2023/07/01 03:53:22;;;;;;;6.17;4.30;;;15.60;99.90;;;;;;4981941;28;20180;-39
2023/07/01 03:55:48;;;;;;;6.93;4.47;;;15.50;99.90;;;;;;4980417;28;20191;-39
2023/07/01 03:58:21;;;;;;;5.90;3.70;;;15.60;99.90;;;;;;4985675;28;20200;-40
2023/07/01 04:00:53;;;;;;;5.63;3.80;;;15.70;99.90;;;;;;4977734;28;20263;-41
2023/07/01 04:03:23;;;;;;;8.03;4.47;;;15.70;99.90;;;;;;4975155;28;20184;-39
2023/07/01 04:05:50;;;;;;;8.00;4.80;;;15.70;99.90;;;;;;4972026;28;20176;-41
2023/07/01 04:08:23;;;;;;;6.30;4.13;;;15.70;99.90;;;;;;4976999;28;20290;-41
2023/07/01 04:10:51;;;;;;;7.07;4.40;;;15.80;99.90;;;;;;4986321;28;20192;-39
2023/07/01 04:13:17;;;;;;;10.43;4.20;;;15.80;99.90;;;;;;4989052;28;20196;-39
2023/07/01 04:15:42;;;;;;;6.50;4.20;;;15.90;99.90;;;;;;4971358;28;20180;-39
2023/07/01 04:18:08;;;;;;;5.93;4.07;;;15.90;99.90;;;;;;4988309;28;20235;-42
2023/07/01 04:20:34;;;;;;;9.90;4.00;;;15.80;99.90;;;;;;4985388;28;20214;-40
2023/07/01 04:23:00;;;;;;;7.03;4.10;;;15.80;99.90;;;;;;4977341;28;20230;-40
2023/07/01 04:25:26;;;;;;;7.60;3.87;;;15.80;99.90;;;;;;4977567;28;20176;-40
2023/07/01 04:27:51;;;;;;;9.43;4.17;;;15.80;99.90;;;;;;4977064;28;20238;-36
2023/07/01 04:30:18;;;;;;;11.20;4.43;;;15.70;99.90;;;;;;4991026;28;20184;-39
2023/07/01 04:32:43;;;;;;;9.03;4.60;;;15.70;99.90;;;;;;4971499;28;20176;-41
2023/07/01 04:35:09;;;;;;;8.73;4.50;;;15.70;99.90;;;;;;4993151;28;20187;-39
2023/07/01 04:37:35;;;;;;;14.13;5.03;;;15.70;99.90;;;;;;4984326;28;20229;-39
2023/07/01 04:40:02;;;;;;;15.80;4.63;;;15.70;99.90;;;;;;4992962;28;20188;-39
2023/07/01 04:42:28;;;;;;;13.27;5.13;;;15.60;99.90;;;;;;4969400;28;20180;-37
2023/07/01 04:44:54;;;;;;;12.43;4.80;;;15.60;99.90;;;;;;4986675;28;20180;-39
2023/07/01 04:47:21;;;;;;;11.17;4.80;;;15.70;99.90;;;;;;4989112;28;20720;-38
2023/07/01 04:49:47;;;;;;;15.97;5.37;;;15.70;99.90;;;;;;4957483;28;20216;-40
2023/07/01 04:52:16;;;;;;;12.67;4.90;;;15.80;99.90;;;;;;5005252;28;20267;-38
2023/07/01 04:54:42;;;;;;;11.33;5.27;;;15.90;99.90;;;;;;4976894;28;20253;-41
2023/07/01 04:57:07;;;;;;;14.13;5.13;;;16.00;99.90;;;;;;4976265;28;20296;-41
2023/07/01 04:59:33;;;;;;;11.67;4.17;;;16.10;99.90;;;;;;4985267;28;20180;-39
2023/07/01 05:01:59;;;;;;;9.07;4.73;;;16.10;99.90;;;;;;4985464;28;20278;-41
2023/07/01 05:04:25;;;;;;;10.40;4.70;;;16.20;99.90;;;;;;4984966;28;20239;-40
2023/07/01 05:06:51;;;;;;;9.10;4.40;;;16.20;99.90;;;;;;4982106;28;20226;-40
2023/07/01 05:09:17;;;;;;;8.97;4.83;;;16.20;99.90;;;;;;4985012;28;20274;-39
2023/07/01 05:11:44;;;;;;;7.00;4.53;;;16.30;99.90;;;;;;4979500;28;20183;-39
2023/07/01 05:14:10;;;;;;;8.50;4.70;;;16.30;99.90;;;;;;4974311;28;20186;-41
2023/07/01 05:16:36;;;;;;;7.17;4.00;;;16.40;99.90;;;;;;4974280;28;20187;-41
2023/07/01 05:19:02;;;;;;;12.18;4.68;;;16.50;99.90;;;;;;4989882;28;20211;-39
2023/07/01 05:21:29;;;;;;;9.47;4.87;;;16.60;99.90;;;;;;4994857;28;20188;-39
2023/07/01 05:23:55;;;;;;;10.17;4.70;;;16.60;99.90;;;;;;4975455;28;20250;-39
2023/07/01 05:26:21;;;;;;;7.43;4.37;;;16.50;99.90;;;;;;4978648;28;20254;-41
2023/07/01 05:28:47;;;;;;;10.52;4.30;;;16.50;99.90;;;;;;4983341;28;20231;-40
2023/07/01 05:31:13;;;;;;;8.40;4.80;;;16.60;99.90;;;;;;4981192;28;20194;-42
2023/07/01 05:33:44;;;;;;;7.07;4.78;;;16.70;99.90;;;;;;4979407;28;20187;-40
2023/07/01 05:36:12;;;;;;;8.77;4.33;;;16.70;99.90;;;;;;5000878;28;20189;-40
2023/07/01 05:38:39;;;;;;;7.88;5.25;;;16.90;99.90;;;;;;4985501;28;20224;-37
2023/07/01 05:41:05;;;;;;;9.82;5.00;;;17.00;99.90;;;;;;4974038;28;20258;-41
2023/07/01 05:43:31;;;;;;;8.15;4.50;;;17.20;99.90;;;;;;4990249;28;20206;-40
2023/07/01 05:45:57;;;;;;;6.95;4.55;;;17.30;99.90;;;;;;4978947;28;20195;-42
2023/07/01 05:48:23;;;;;;;5.97;4.50;;;17.40;99.90;;;;;;5013149;28;20695;-40
2023/07/01 05:50:48;;;;;;;5.00;4.03;;;17.50;99.90;;;;;;4984304;28;20190;-39
2023/07/01 05:53:14;;;;;;;7.30;4.45;;;17.60;99.90;;;;;;4971160;28;20226;-39
2023/07/01 05:55:40;;;;;;;6.38;4.05;;;17.70;99.90;;;;;;4974103;28;20250;-41
2023/07/01 05:58:06;;;;;;;4.00;3.60;;;17.80;99.90;;;;;;4974002;28;20204;-40
2023/07/01 06:00:32;;;;;;;4.28;3.88;;;18.00;99.90;;;;;;4972866;28;20177;-36
2023/07/01 06:02:57;;;;;;;4.82;3.65;;;18.00;99.90;;;;;;4985326;28;20175;-37
2023/07/01 06:05:23;;;;;;;4.25;3.85;;;18.10;99.90;;;;;;4986671;28;20189;-38
2023/07/01 06:07:49;;;;;;;5.80;3.67;;;18.10;99.90;;;;;;4970287;28;20211;-40
2023/07/01 06:10:15;;;;;;;5.05;3.72;;;18.20;99.90;;;;;;4989214;28;20191;-41
2023/07/01 06:12:41;;;;;;;6.68;3.90;;;18.30;99.90;;;;;;4983581;28;20327;-41
2023/07/01 06:15:07;;;;;;;4.47;3.28;;;18.40;99.90;;;;;;4986640;28;20187;-39
2023/07/01 06:17:33;;;;;;;5.00;3.47;;;18.50;99.90;;;;;;4989404;28;20200;-40
2023/07/01 06:19:59;;;;;;;4.93;3.40;;;18.60;99.90;;;;;;4987823;28;20250;-41
2023/07/01 06:22:24;;;;;;;3.80;3.35;;;18.60;99.90;;;;;;5002249;28;20194;-37
2023/07/01 06:24:50;;;;;;;5.28;3.05;;;18.60;99.90;;;;;;4978299;28;20181;-39
2023/07/01 06:27:16;;;;;;;3.60;3.20;;;18.70;99.90;;;;;;4969594;28;20215;-37
2023/07/01 06:29:42;;;;;;;5.82;4.10;;;18.80;99.90;;;;;;4979234;28;20180;-41
2023/07/01 06:32:08;;;;;;;3.80;3.17;;;18.90;99.90;;;;;;4989588;28;20199;-40
2023/07/01 06:34:34;;;;;;;5.75;3.30;;;19.00;99.90;;;;;;4989472;28;20188;-41
2023/07/01 06:36:59;;;;;;;5.80;2.83;;;19.10;99.90;;;;;;4969480;28;20217;-38
2023/07/01 06:39:25;;;;;;;3.13;2.80;;;19.10;99.90;;;;;;4969926;28;20191;-39
2023/07/01 06:41:51;;;;;;;6.07;2.65;;;19.10;99.90;;;;;;4970748;28;20190;-39
2023/07/01 06:44:17;;;;;;;5.28;2.88;;;19.10;99.90;;;;;;4976270;28;20248;-40
2023/07/01 06:46:43;;;;;;;3.65;2.90;;;19.20;99.90;;;;;;4989361;28;20238;-40
2023/07/01 06:49:09;;;;;;;3.30;2.90;;;19.40;99.90;;;;;;4978219;28;20187;-40
2023/07/01 06:51:35;;;;;;;4.20;3.28;;;19.60;99.90;;;;;;5004371;28;20184;-39
2023/07/01 06:54:01;;;;;;;4.38;2.60;;;19.70;99.90;;;;;;5001629;28;20184;-39
2023/07/01 06:56:27;;;;;;;5.22;2.95;;;19.70;99.90;;;;;;4974214;28;20278;-40
2023/07/01 06:58:53;;;;;;;3.20;2.58;;;19.80;99.90;;;;;;4972945;28;20184;-41
2023/07/01 07:01:19;;;;;;;3.80;2.30;;;19.90;99.90;;;;;;4975268;28;20188;-41
2023/07/01 07:03:45;;;;;;;5.32;2.67;;;20.00;99.90;;;;;;4976174;28;20180;-41
2023/07/01 07:06:10;;;;;;;4.18;2.53;;;20.00;99.90;;;;;;4985020;28;20319;-40
2023/07/01 07:08:37;;;;;;;3.97;2.60;;;20.00;99.90;;;;;;4982235;28;20227;-41
2023/07/01 07:11:02;;;;;;;2.75;2.55;;;20.10;99.90;;;;;;4964689;28;20195;-40
2023/07/01 07:13:28;;;;;;;5.40;2.53;;;20.20;99.90;;;;;;4989366;28;20184;-40
2023/07/01 07:15:54;;;;;;;3.13;2.22;;;20.40;99.90;;;;;;4970278;28;20330;-41
2023/07/01 07:18:20;;;;;;;2.92;2.20;;;20.20;99.90;;;;;;4984864;28;20211;-39
2023/07/01 07:20:45;;;;;;;4.63;2.13;;;20.20;99.90;;;;;;4988320;28;20181;-40
2023/07/01 07:23:11;;;;;;;3.17;2.50;;;20.20;99.90;;;;;;4969579;28;20193;-38
2023/07/01 07:25:37;;;;;;;3.90;2.70;;;20.30;99.90;;;;;;4980732;28;20653;-42
2023/07/01 07:28:03;;;;;;;3.15;2.28;;;20.30;99.90;;;;;;4987548;28;20213;-39
2023/07/01 07:30:29;;;;;;;2.83;2.38;;;20.40;99.90;;;;;;4981189;28;20185;-40
2023/07/01 07:32:55;;;;;;;3.13;2.50;;;20.50;99.90;;;;;;4970527;28;20179;-40
2023/07/01 07:35:21;;;;;;;4.82;2.60;;;20.50;99.90;;;;;;4975162;28;20180;-40
2023/07/01 07:37:48;;;;;;;5.13;2.97;;;20.60;99.90;;;;;;4976668;28;20315;-39
2023/07/01 07:40:15;;;;;;;3.67;2.80;;;20.70;99.90;;;;;;4988371;28;20199;-39
2023/07/01 07:42:44;;;;;;;4.68;2.50;;;20.80;99.90;;;;;;4986542;28;20184;-41
2023/07/01 07:45:12;;;;;;;4.28;2.47;;;20.90;99.90;;;;;;4972079;28;20289;-40
2023/07/01 07:47:38;;;;;;;4.15;2.60;;;20.90;99.90;;;;;;4977608;28;20234;-37
2023/07/01 07:50:04;;;;;;;4.18;2.65;;;20.90;99.90;;;;;;4984516;28;20230;-40
2023/07/01 07:52:31;;;;;;;4.13;2.53;;;21.00;99.90;;;;;;4983937;28;20266;-39
2023/07/01 07:54:56;;;;;;;3.15;2.50;;;21.10;99.90;;;;;;4980175;28;20180;-42
2023/07/01 07:57:23;;;;;;;2.95;2.40;;;21.20;99.90;;;;;;4994749;28;20215;-42
2023/07/01 07:59:49;;;;;;;3.78;2.63;;;21.20;99.90;;;;;;4979572;28;20191;-39
2023/07/01 08:02:16;;;;;;;3.45;2.63;;;21.40;99.90;;;;;;4987853;28;20184;-41
2023/07/01 08:04:42;;;;;;;3.90;2.53;;;21.50;99.90;;;;;;4974197;28;20176;-40
2023/07/01 08:07:10;;;;;;;5.63;2.53;;;21.60;99.90;;;;;;4971521;28;20226;-41
2023/07/01 08:09:37;;;;;;;5.25;2.10;;;21.80;99.90;;;;;;4973632;28;20283;-39
2023/07/01 08:12:03;;;;;;;2.28;1.98;;;21.90;99.90;;;;;;4968181;28;20188;-42
2023/07/01 08:14:32;;;;;;;5.38;2.05;;;22.00;99.90;;;;;;4988183;28;20211;-42
2023/07/01 08:17:01;;;;;;;3.75;2.13;;;22.00;99.90;;;;;;4971796;28;20254;-40
2023/07/01 08:19:28;;;;;;;3.58;2.53;;;22.10;99.90;;;;;;4977949;28;20192;-39
2023/07/01 08:21:55;;;;;;;4.82;2.13;;;22.20;99.90;;;;;;4973051;28;20184;-41
2023/07/01 08:24:21;;;;;;;3.15;2.15;;;22.20;99.90;;;;;;4971021;28;20330;-41
2023/07/01 08:26:47;;;;;;;3.20;2.10;;;21.90;99.90;;;;;;4967036;28;20216;-39
2023/07/01 08:29:13;;;;;;;7.18;2.25;;;21.70;99.90;;;;;;4983926;28;20188;-38
2023/07/01 08:31:40;;;;;;;2.33;2.08;;;21.60;99.90;;;;;;4973631;28;20237;-39
2023/07/01 08:34:08;;;;;;;2.42;2.05;;;21.60;99.90;;;;;;4995891;28;20207;-39
2023/07/01 08:36:34;;;;;;;2.60;1.98;;;21.60;99.90;;;;;;4973286;28;20215;-40
2023/07/01 08:39:00;;;;;;;3.17;1.80;;;21.70;99.90;;;;;;4977220;28;20218;-39
2023/07/01 08:41:28;;;;;;;1.80;1.70;;;21.80;99.90;;;;;;4982418;28;20180;-40
2023/07/01 08:43:54;;;;;;;2.60;1.92;;;21.80;99.90;;;;;;4989451;28;20184;-40
2023/07/01 08:46:22;;;;;;;3.67;1.77;;;21.80;99.90;;;;;;4970973;28;20208;-40
2023/07/01 08:48:56;;;;;;;2.67;1.77;;;21.90;99.90;;;;;;4985176;28;20199;-41
2023/07/01 08:51:31;;;;;;;2.72;2.15;;;22.00;99.90;;;;;;4965405;28;20180;-39
2023/07/01 08:54:00;;;;;;;4.72;2.10;;;22.10;99.90;;;;;;5005417;28;20211;-40
2023/07/01 08:56:26;;;;;;;4.57;2.03;;;22.00;99.90;;;;;;4988393;28;20246;-38
2023/07/01 08:58:52;;;;;;;2.55;2.00;;;22.20;99.90;;;;;;4970887;28;20191;-40
2023/07/01 09:01:24;;;;;;;4.22;2.33;;;22.20;99.90;;;;;;4991372;28;20187;-42
2023/07/01 09:03:51;;;;;;;2.15;1.95;;;22.20;99.90;;;;;;4993387;28;20191;-41
2023/07/01 09:06:20;;;;;;;2.13;1.92;;;22.40;99.90;;;;;;4995809;28;20298;-43
2023/07/01 09:08:47;;;;;;;3.15;2.00;;;22.70;99.90;;;;;;4965203;28;20279;-40
2023/07/01 09:11:15;;;;;;;3.00;2.00;;;22.70;99.90;;;;;;4970197;28;20183;-39
2023/07/01 09:13:44;;;;;;;2.85;1.90;;;22.90;99.90;;;;;;4973309;28;20238;-39
2023/07/01 09:16:10;;;;;;;2.25;1.92;;;23.00;99.90;;;;;;4977831;28;20189;-39
2023/07/01 09:18:40;;;;;;;3.10;1.70;;;23.20;99.90;;;;;;4970943;28;20215;-41
2023/07/01 09:21:17;;;;;;;2.08;1.70;;;22.90;99.90;;;;;;4986435;28;20191;-42
2023/07/01 09:23:44;;;;;;;3.33;2.08;;;22.90;99.90;;;;;;4985228;28;20188;-40
2023/07/01 09:26:15;;;;;;;4.35;2.05;;;23.10;99.90;;;;;;4969338;28;20242;-39
2023/07/01 09:28:49;;;;;;;6.22;2.10;;;23.10;99.90;;;;;;4986867;28;20208;-42
2023/07/01 09:31:16;;;;;;;2.60;1.75;;;23.00;99.90;;;;;;4970850;28;20187;-39
2023/07/01 09:33:59;;;;;;;2.70;1.80;;;23.10;99.90;;;;;;4982232;28;20184;-39
2023/07/01 09:36:27;;;;;;;2.50;1.55;;;23.00;99.90;;;;;;4970897;28;20183;-40
2023/07/01 09:38:54;;;;;;;1.83;1.73;;;22.90;99.90;;;;;;4980607;28;20184;-42
2023/07/01 09:41:26;;;;;;;2.10;1.77;;;23.00;99.90;;;;;;4983295;28;20352;-41
2023/07/01 09:43:55;;;;;;;3.30;1.70;;;23.20;99.90;;;;;;4986405;28;20184;-39
2023/07/01 09:46:22;;;;;;;3.72;1.90;;;23.30;99.90;;;;;;5003643;28;20215;-41
2023/07/01 09:48:53;;;;;;;2.88;1.80;;;23.50;99.90;;;;;;4982728;28;20209;-42
2023/07/01 09:51:21;;;;;;;2.60;1.70;;;23.60;99.90;;;;;;4982237;28;20192;-42
2023/07/01 09:53:48;;;;;;;2.65;1.80;;;23.60;99.90;;;;;;4963794;28;20270;-39
2023/07/01 09:56:36;;;;;;;4.28;1.77;;;23.60;99.90;;;;;;4983075;28;20195;-42
2023/07/01 09:59:05;;;;;;;1.90;1.80;;;23.40;99.90;;;;;;4978299;28;20188;-40
2023/07/01 10:01:31;;;;;;;2.03;1.65;;;23.50;99.90;;;;;;5005660;28;20191;-41
2023/07/01 10:04:02;;;;;;;3.13;2.10;;;23.70;99.90;;;;;;5000535;28;20246;-41
2023/07/01 10:06:28;;;;;;;2.10;1.90;;;23.70;99.90;;;;;;4974922;28;20233;-39
2023/07/01 10:08:54;;;;;;;5.03;1.88;;;23.80;99.90;;;;;;5006511;28;20184;-39
2023/07/01 10:11:22;;;;;;;1.80;1.70;;;23.80;99.90;;;;;;4973397;28;20180;-37
2023/07/01 10:13:51;;;;;;;3.17;1.50;;;23.70;99.90;;;;;;4966841;28;20188;-38
2023/07/01 10:16:19;;;;;;;2.90;1.65;;;23.70;99.90;;;;;;4960000;28;20191;-38
2023/07/01 10:18:46;;;;;;;1.73;1.60;;;23.80;99.90;;;;;;4989892;28;20222;-40
2023/07/01 10:21:25;;;;;;;2.22;1.67;;;24.10;99.90;;;;;;4977964;28;20192;-38
2023/07/01 10:23:52;;;;;;;3.63;1.98;;;24.30;99.90;;;;;;4993298;28;20184;-38
2023/07/01 10:26:37;;;;;;;3.92;1.63;;;24.50;99.90;;;;;;4977339;28;20243;-38
2023/07/01 10:29:28;;;;;;;1.88;1.73;;;24.70;99.90;;;;;;4987092;28;20188;-40
2023/07/01 10:32:09;;;;;;;2.60;1.67;;;25.00;99.90;;;;;;5003796;28;20180;-40
2023/07/01 10:34:53;;;;;;;9.20;1.63;;;24.90;99.90;;;;;;4991448;28;20649;-39
2023/07/01 10:37:20;;;;;;;2.45;1.63;;;24.70;99.90;;;;;;4966071;28;20224;-38
2023/07/01 10:39:46;;;;;;;2.35;2.10;;;24.50;99.90;;;;;;4977272;28;20180;-38
2023/07/01 10:42:31;;;;;;;5.03;1.50;;;24.20;99.90;;;;;;4977448;28;20234;-39
2023/07/01 10:45:17;;;;;;;4.18;1.70;;;24.20;99.90;;;;;;4971282;28;20279;-39
2023/07/01 10:47:48;;;;;;;3.13;1.88;;;24.40;99.90;;;;;;4970203;28;20211;-37
2023/07/01 10:50:15;;;;;;;2.75;1.80;;;24.30;99.90;;;;;;4986007;28;20188;-40
2023/07/01 10:52:56;;;;;;;4.00;1.85;;;24.10;99.90;;;;;;4993446;28;20234;-39
2023/07/01 10:55:46;;;;;;;2.40;2.00;;;24.10;99.90;;;;;;4983191;28;20192;-37
2023/07/01 10:58:26;;;;;;;2.38;2.10;;;24.20;99.90;;;;;;5001677;28;20200;-40
2023/07/01 11:00:52;;;;;;;4.15;2.30;;;24.20;99.90;;;;;;4993110;28;20191;-38
2023/07/01 11:03:34;;;;;;;3.30;2.40;;;24.30;99.90;;;;;;4979667;28;20184;-39
2023/07/01 11:06:12;;;;;;;4.57;2.28;;;24.20;99.90;;;;;;4982899;28;20189;-39
2023/07/01 11:08:47;;;;;;;4.00;2.45;;;24.30;99.90;;;;;;4999671;28;20290;-41
2023/07/01 11:11:28;;;;;;;4.40;2.50;;;24.40;99.90;;;;;;4988595;28;20184;-40
2023/07/01 11:14:05;;;;;;;3.50;2.50;;;24.50;99.90;;;;;;4991064;28;20180;-41
2023/07/01 11:16:32;;;;;;;3.33;2.30;;;24.50;99.90;;;;;;4987856;28;20195;-39
2023/07/01 11:19:04;;;;;;;3.63;2.38;;;24.60;99.90;;;;;;4982315;28;20250;-39
2023/07/01 11:21:31;;;;;;;4.10;2.40;;;25.00;99.90;;;;;;4982929;28;20227;-37
2023/07/01 11:24:08;;;;;;;4.70;2.13;;;25.20;99.90;;;;;;4968727;28;20215;-39
2023/07/01 11:26:39;;;;;;;3.42;2.20;;;25.40;99.90;;;;;;4971201;28;20204;-39
2023/07/01 11:29:10;;;;;;;3.75;2.55;;;25.60;99.90;;;;;;4976407;28;20187;-40
2023/07/01 11:31:39;;;;;;;5.63;2.30;;;25.40;99.90;;;;;;4982908;28;20208;-41
2023/07/01 11:34:06;;;;;;;2.33;2.13;;;25.20;99.90;;;;;;4992722;28;20238;-40
2023/07/01 11:36:36;;;;;;;4.07;2.22;;;25.00;99.90;;;;;;4986617;28;20185;-37
2023/07/01 11:39:10;;;;;;;3.47;2.17;;;24.90;99.90;;;;;;4970647;28;20191;-42
2023/07/01 11:41:37;;;;;;;3.50;2.10;;;24.90;99.90;;;;;;4976079;28;20195;-38
2023/07/01 11:44:06;;;;;;;1.92;1.73;;;24.70;99.90;;;;;;4976067;28;20191;-40
2023/07/01 11:46:34;;;;;;;1.70;1.60;;;24.60;99.90;;;;;;4994115;28;20223;-35
2023/07/01 11:49:19;;;;;;;4.18;1.70;;;24.70;99.90;;;;;;4989596;28;20176;-38
2023/07/01 11:51:49;;;;;;;3.78;1.92;;;24.70;99.90;;;;;;4975947;28;20211;-38
2023/07/01 11:54:16;;;;;;;2.72;1.73;;;24.40;99.90;;;;;;4976124;28;20251;-38
2023/07/01 11:56:44;;;;;;;6.53;1.90;;;24.30;99.90;;;;;;4972818;28;20199;-38
2023/07/01 11:59:10;;;;;;;7.40;2.10;;;24.00;99.90;;;;;;4971435;28;20191;-40
2023/07/01 12:01:39;;;;;;;3.45;1.75;;;23.80;99.90;;;;;;4979666;28;20303;-37
2023/07/01 12:04:16;;;;;;;1.95;1.60;;;23.60;99.90;;;;;;4985945;28;20270;-36
2023/07/01 12:06:42;;;;;;;3.22;1.35;;;23.60;99.90;;;;;;4982075;28;20246;-39
2023/07/01 12:09:08;;;;;;;2.60;1.33;;;23.50;99.90;;;;;;4975875;28;20196;-39
2023/07/01 12:11:47;;;;;;;2.60;1.52;;;23.30;99.90;;;;;;4983187;28;20187;-38
2023/07/01 12:14:21;;;;;;;4.05;1.42;;;23.20;99.90;;;;;;4975672;28;20183;-41
2023/07/01 12:16:49;;;;;;;2.85;1.50;;;23.20;99.90;;;;;;4983287;28;20290;-41
2023/07/01 12:19:17;;;;;;;1.73;1.30;;;23.00;99.90;;;;;;5000863;28;20323;-43
2023/07/01 12:21:44;;;;;;;1.75;1.30;;;22.80;99.90;;;;;;4976496;28;20180;-41
2023/07/01 12:24:17;;;;;;;7.55;1.73;;;22.80;99.90;;;;;;4987879;28;20200;-41
2023/07/01 12:26:43;;;;;;;2.03;1.50;;;22.60;99.90;;;;;;4990067;28;20222;-41
2023/07/01 12:29:09;;;;;;;2.40;1.63;;;22.50;99.90;;;;;;4978239;28;20191;-42
2023/07/01 12:31:35;;;;;;;2.58;1.38;;;22.60;99.90;;;;;;4974666;28;20188;-39
2023/07/01 12:34:02;;;;;;;1.63;1.33;;;22.70;99.90;;;;;;4985539;28;20203;-42
2023/07/01 12:36:29;;;;;;;4.20;1.40;;;22.80;99.90;;;;;;4974183;28;20188;-43
2023/07/01 12:38:58;;;;;;;2.40;1.25;;;22.70;99.90;;;;;;4974037;28;20282;-40
2023/07/01 12:41:30;;;;;;;1.30;1.20;;;22.60;99.90;;;;;;4989789;28;20251;-39
2023/07/01 12:43:57;;;;;;;1.65;1.30;;;22.60;99.90;;;;;;4976793;28;20184;-39
2023/07/01 12:46:23;;;;;;;2.35;1.35;;;22.40;99.90;;;;;;4976613;28;20214;-41
2023/07/01 12:48:49;;;;;;;2.63;1.00;;;22.30;99.90;;;;;;4976768;28;20196;-41